sensor_id;sensor_type;location;lat;lon;timestamp;P1;durP1;ratioP1;P2;durP2;ratioP2
17955;SDS011;27666;51.498;11.966;2022-07-01T00:01:18;19.83;;;15.02;;
17955;SDS011;27666;51.498;11.966;2022-07-01T00:04:04;21.60;;;14.65;;
17955;SDS011;27666;51.498;11.966;2022-07-01T00:06:52;22.05;;;14.40;;
17955;SDS011;27666;51.498;11.966;2022-07-01T00:09:38;19.85;;;14.27;;
17955;SDS011;27666;51.498;11.966;2022-07-01T00:12:25;19.25;;;13.93;;
17955;SDS011;27666;51.498;11.966;2022-07-01T00:15:12;18.67;;;14.43;;
17955;SDS011;27666;51.498;11.966;2022-07-01T00:17:59;23.90;;;14.70;;
17955;SDS011;27666;51.498;11.966;2022-07-01T00:20:45;20.65;;;14.48;;
17955;SDS011;27666;51.498;11.966;2022-07-01T00:23:33;18.42;;;13.63;;
17955;SDS011;27666;51.498;11.966;2022-07-01T00:26:19;20.30;;;13.93;;
17955;SDS011;27666;51.498;11.966;2022-07-01T00:29:05;20.27;;;13.90;;
17955;SDS011;27666;51.498;11.966;2022-07-01T00:31:52;17.50;;;14.60;;
17955;SDS011;27666;51.498;11.966;2022-07-01T00:34:38;28.58;;;14.68;;
17955;SDS011;27666;51.498;11.966;2022-07-01T00:37:25;21.08;;;13.85;;
17955;SDS011;27666;51.498;11.966;2022-07-01T00:40:13;20.80;;;14.90;;
17955;SDS011;27666;51.498;11.966;2022-07-01T00:42:59;19.65;;;14.45;;
17955;SDS011;27666;51.498;11.966;2022-07-01T00:45:46;19.05;;;14.18;;
17955;SDS011;27666;51.498;11.966;2022-07-01T00:48:34;22.48;;;14.32;;
17955;SDS011;27666;51.498;11.966;2022-07-01T00:51:22;20.13;;;15.23;;
17955;SDS011;27666;51.498;11.966;2022-07-01T00:54:09;19.10;;;14.50;;
17955;SDS011;27666;51.498;11.966;2022-07-01T00:56:58;17.42;;;13.85;;
17955;SDS011;27666;51.498;11.966;2022-07-01T00:59:44;17.23;;;13.73;;
17955;SDS011;27666;51.498;11.966;2022-07-01T01:02:30;18.70;;;13.90;;
17955;SDS011;27666;51.498;11.966;2022-07-01T01:05:17;21.23;;;15.10;;
17955;SDS011;27666;51.498;11.966;2022-07-01T01:08:06;24.63;;;14.75;;
17955;SDS011;27666;51.498;11.966;2022-07-01T01:10:54;20.85;;;14.57;;
17955;SDS011;27666;51.498;11.966;2022-07-01T01:13:43;20.60;;;14.63;;
17955;SDS011;27666;51.498;11.966;2022-07-01T01:16:29;18.67;;;14.00;;
17955;SDS011;27666;51.498;11.966;2022-07-01T01:19:16;18.13;;;12.35;;
17955;SDS011;27666;51.498;11.966;2022-07-01T01:22:03;17.00;;;13.30;;
17955;SDS011;27666;51.498;11.966;2022-07-01T01:24:50;17.13;;;12.90;;
17955;SDS011;27666;51.498;11.966;2022-07-01T01:27:36;17.30;;;12.52;;
17955;SDS011;27666;51.498;11.966;2022-07-01T01:30:23;21.88;;;13.10;;
17955;SDS011;27666;51.498;11.966;2022-07-01T01:33:09;19.77;;;12.90;;
17955;SDS011;27666;51.498;11.966;2022-07-01T01:35:56;15.48;;;12.68;;
17955;SDS011;27666;51.498;11.966;2022-07-01T01:38:44;17.55;;;12.82;;
17955;SDS011;27666;51.498;11.966;2022-07-01T01:41:31;16.67;;;12.43;;
17955;SDS011;27666;51.498;11.966;2022-07-01T01:44:17;17.17;;;12.38;;
17955;SDS011;27666;51.498;11.966;2022-07-01T01:47:04;20.70;;;12.57;;
17955;SDS011;27666;51.498;11.966;2022-07-01T01:49:50;15.25;;;12.10;;
17955;SDS011;27666;51.498;11.966;2022-07-01T01:52:37;16.60;;;12.15;;
17955;SDS011;27666;51.498;11.966;2022-07-01T01:55:29;17.95;;;11.98;;
17955;SDS011;27666;51.498;11.966;2022-07-01T01:58:15;17.23;;;12.27;;
17955;SDS011;27666;51.498;11.966;2022-07-01T02:01:02;15.98;;;12.73;;
17955;SDS011;27666;51.498;11.966;2022-07-01T02:03:49;18.92;;;12.77;;
17955;SDS011;27666;51.498;11.966;2022-07-01T02:06:37;19.45;;;12.65;;
17955;SDS011;27666;51.498;11.966;2022-07-01T02:09:25;18.30;;;13.55;;
17955;SDS011;27666;51.498;11.966;2022-07-01T02:12:14;18.05;;;13.07;;
17955;SDS011;27666;51.498;11.966;2022-07-01T02:15:02;24.38;;;13.93;;
17955;SDS011;27666;51.498;11.966;2022-07-01T02:17:49;20.02;;;13.38;;
17955;SDS011;27666;51.498;11.966;2022-07-01T02:20:36;21.67;;;13.93;;
17955;SDS011;27666;51.498;11.966;2022-07-01T02:23:22;21.10;;;13.02;;
17955;SDS011;27666;51.498;11.966;2022-07-01T02:26:09;17.67;;;13.02;;
17955;SDS011;27666;51.498;11.966;2022-07-01T02:28:57;19.60;;;13.38;;
17955;SDS011;27666;51.498;11.966;2022-07-01T02:31:43;18.92;;;13.77;;
17955;SDS011;27666;51.498;11.966;2022-07-01T02:34:30;19.63;;;13.15;;
17955;SDS011;27666;51.498;11.966;2022-07-01T02:37:16;17.38;;;13.55;;
17955;SDS011;27666;51.498;11.966;2022-07-01T02:40:03;18.52;;;12.80;;
17955;SDS011;27666;51.498;11.966;2022-07-01T02:42:50;15.18;;;12.32;;
17955;SDS011;27666;51.498;11.966;2022-07-01T02:45:38;18.50;;;12.75;;
17955;SDS011;27666;51.498;11.966;2022-07-01T02:48:26;20.23;;;13.18;;
17955;SDS011;27666;51.498;11.966;2022-07-01T02:51:12;20.98;;;14.07;;
17955;SDS011;27666;51.498;11.966;2022-07-01T02:53:59;17.55;;;13.13;;
17955;SDS011;27666;51.498;11.966;2022-07-01T02:56:46;16.60;;;13.07;;
17955;SDS011;27666;51.498;11.966;2022-07-01T02:59:33;19.73;;;13.50;;
17955;SDS011;27666;51.498;11.966;2022-07-01T03:02:20;20.83;;;13.65;;
17955;SDS011;27666;51.498;11.966;2022-07-01T03:05:08;22.50;;;15.50;;
17955;SDS011;27666;51.498;11.966;2022-07-01T03:07:55;20.25;;;15.13;;
17955;SDS011;27666;51.498;11.966;2022-07-01T03:10:41;21.15;;;15.48;;
17955;SDS011;27666;51.498;11.966;2022-07-01T03:13:28;24.40;;;15.43;;
17955;SDS011;27666;51.498;11.966;2022-07-01T03:16:14;19.17;;;14.70;;
17955;SDS011;27666;51.498;11.966;2022-07-01T03:19:02;20.75;;;15.38;;
17955;SDS011;27666;51.498;11.966;2022-07-01T03:21:50;19.65;;;13.77;;
17955;SDS011;27666;51.498;11.966;2022-07-01T03:24:36;20.42;;;13.98;;
17955;SDS011;27666;51.498;11.966;2022-07-01T03:27:24;21.27;;;13.30;;
17955;SDS011;27666;51.498;11.966;2022-07-01T03:30:11;18.30;;;12.63;;
17955;SDS011;27666;51.498;11.966;2022-07-01T03:32:59;18.33;;;11.73;;
17955;SDS011;27666;51.498;11.966;2022-07-01T03:35:46;16.25;;;11.52;;
17955;SDS011;27666;51.498;11.966;2022-07-01T03:38:33;14.80;;;10.32;;
17955;SDS011;27666;51.498;11.966;2022-07-01T03:41:20;15.50;;;10.48;;
17955;SDS011;27666;51.498;11.966;2022-07-01T03:44:06;16.52;;;10.23;;
17955;SDS011;27666;51.498;11.966;2022-07-01T03:46:53;13.57;;;9.43;;
17955;SDS011;27666;51.498;11.966;2022-07-01T03:49:40;12.10;;;9.48;;
17955;SDS011;27666;51.498;11.966;2022-07-01T03:52:28;13.88;;;10.00;;
17955;SDS011;27666;51.498;11.966;2022-07-01T03:55:15;17.58;;;9.73;;
17955;SDS011;27666;51.498;11.966;2022-07-01T03:58:01;13.23;;;9.80;;
17955;SDS011;27666;51.498;11.966;2022-07-01T04:00:48;18.00;;;10.13;;
17955;SDS011;27666;51.498;11.966;2022-07-01T04:03:34;12.95;;;10.45;;
17955;SDS011;27666;51.498;11.966;2022-07-01T04:06:21;10.98;;;9.73;;
17955;SDS011;27666;51.498;11.966;2022-07-01T04:09:09;13.40;;;10.23;;
17955;SDS011;27666;51.498;11.966;2022-07-01T04:11:56;12.60;;;9.45;;
17955;SDS011;27666;51.498;11.966;2022-07-01T04:14:44;10.38;;;8.90;;
17955;SDS011;27666;51.498;11.966;2022-07-01T04:17:30;12.50;;;8.25;;
17955;SDS011;27666;51.498;11.966;2022-07-01T04:20:17;12.90;;;8.40;;
17955;SDS011;27666;51.498;11.966;2022-07-01T04:23:04;8.48;;;6.63;;
17955;SDS011;27666;51.498;11.966;2022-07-01T04:25:51;10.63;;;6.65;;
17955;SDS011;27666;51.498;11.966;2022-07-01T04:28:37;8.98;;;6.00;;
17955;SDS011;27666;51.498;11.966;2022-07-01T04:31:23;8.25;;;6.03;;
17955;SDS011;27666;51.498;11.966;2022-07-01T04:34:10;8.75;;;5.68;;
17955;SDS011;27666;51.498;11.966;2022-07-01T04:36:56;6.60;;;5.07;;
17955;SDS011;27666;51.498;11.966;2022-07-01T04:39:43;8.95;;;7.57;;
17955;SDS011;27666;51.498;11.966;2022-07-01T04:42:31;7.65;;;5.43;;
17955;SDS011;27666;51.498;11.966;2022-07-01T04:45:17;9.57;;;6.50;;
17955;SDS011;27666;51.498;11.966;2022-07-01T04:48:04;7.00;;;5.90;;
17955;SDS011;27666;51.498;11.966;2022-07-01T04:50:51;8.15;;;5.30;;
17955;SDS011;27666;51.498;11.966;2022-07-01T04:53:37;8.68;;;5.75;;
17955;SDS011;27666;51.498;11.966;2022-07-01T04:56:23;11.10;;;5.45;;
17955;SDS011;27666;51.498;11.966;2022-07-01T04:59:13;7.68;;;5.95;;
17955;SDS011;27666;51.498;11.966;2022-07-01T05:02:00;9.40;;;7.07;;
17955;SDS011;27666;51.498;11.966;2022-07-01T05:04:46;9.10;;;6.50;;
17955;SDS011;27666;51.498;11.966;2022-07-01T05:07:33;8.55;;;7.03;;
17955;SDS011;27666;51.498;11.966;2022-07-01T05:10:19;13.93;;;9.95;;
17955;SDS011;27666;51.498;11.966;2022-07-01T05:13:06;14.80;;;10.48;;
17955;SDS011;27666;51.498;11.966;2022-07-01T05:15:54;15.52;;;11.60;;
17955;SDS011;27666;51.498;11.966;2022-07-01T05:18:41;15.15;;;12.15;;
17955;SDS011;27666;51.498;11.966;2022-07-01T05:21:44;19.33;;;12.65;;
17955;SDS011;27666;51.498;11.966;2022-07-01T05:24:43;19.67;;;12.05;;
17955;SDS011;27666;51.498;11.966;2022-07-01T05:27:29;18.33;;;11.88;;
17955;SDS011;27666;51.498;11.966;2022-07-01T05:30:17;14.18;;;11.32;;
17955;SDS011;27666;51.498;11.966;2022-07-01T05:33:04;18.13;;;11.75;;
17955;SDS011;27666;51.498;11.966;2022-07-01T05:35:51;14.43;;;10.75;;
17955;SDS011;27666;51.498;11.966;2022-07-01T05:38:38;13.60;;;10.85;;
17955;SDS011;27666;51.498;11.966;2022-07-01T05:41:24;13.35;;;11.18;;
17955;SDS011;27666;51.498;11.966;2022-07-01T05:44:11;14.43;;;10.55;;
17955;SDS011;27666;51.498;11.966;2022-07-01T05:46:57;15.63;;;11.15;;
17955;SDS011;27666;51.498;11.966;2022-07-01T05:49:44;18.38;;;12.45;;
17955;SDS011;27666;51.498;11.966;2022-07-01T05:52:31;14.02;;;11.38;;
17955;SDS011;27666;51.498;11.966;2022-07-01T05:55:17;67.63;;;37.13;;
17955;SDS011;27666;51.498;11.966;2022-07-01T05:58:04;22.42;;;12.68;;
17955;SDS011;27666;51.498;11.966;2022-07-01T06:00:52;20.92;;;12.23;;
17955;SDS011;27666;51.498;11.966;2022-07-01T06:03:52;15.32;;;11.27;;
17955;SDS011;27666;51.498;11.966;2022-07-01T06:06:40;14.63;;;10.10;;
17955;SDS011;27666;51.498;11.966;2022-07-01T06:09:27;13.38;;;8.48;;
17955;SDS011;27666;51.498;11.966;2022-07-01T06:12:13;8.73;;;7.38;;
17955;SDS011;27666;51.498;11.966;2022-07-01T06:14:59;8.00;;;6.30;;
17955;SDS011;27666;51.498;11.966;2022-07-01T06:17:46;7.95;;;5.88;;
17955;SDS011;27666;51.498;11.966;2022-07-01T06:20:34;6.78;;;5.28;;
17955;SDS011;27666;51.498;11.966;2022-07-01T06:23:22;7.07;;;4.90;;
17955;SDS011;27666;51.498;11.966;2022-07-01T06:26:08;5.72;;;4.97;;
17955;SDS011;27666;51.498;11.966;2022-07-01T06:28:55;5.90;;;4.35;;
17955;SDS011;27666;51.498;11.966;2022-07-01T06:31:43;6.43;;;4.55;;
17955;SDS011;27666;51.498;11.966;2022-07-01T06:34:29;4.75;;;3.63;;
17955;SDS011;27666;51.498;11.966;2022-07-01T06:37:16;4.25;;;3.85;;
17955;SDS011;27666;51.498;11.966;2022-07-01T06:40:07;4.82;;;3.40;;
17955;SDS011;27666;51.498;11.966;2022-07-01T06:42:53;4.15;;;3.58;;
17955;SDS011;27666;51.498;11.966;2022-07-01T06:45:40;5.93;;;3.65;;
17955;SDS011;27666;51.498;11.966;2022-07-01T06:48:26;6.38;;;3.60;;
17955;SDS011;27666;51.498;11.966;2022-07-01T06:51:13;8.05;;;4.75;;
17955;SDS011;27666;51.498;11.966;2022-07-01T06:53:59;3.78;;;3.25;;
17955;SDS011;27666;51.498;11.966;2022-07-01T06:56:47;3.10;;;2.80;;
17955;SDS011;27666;51.498;11.966;2022-07-01T06:59:33;2.63;;;2.42;;
17955;SDS011;27666;51.498;11.966;2022-07-01T07:02:20;2.60;;;2.40;;
17955;SDS011;27666;51.498;11.966;2022-07-01T07:05:13;2.92;;;2.40;;
17955;SDS011;27666;51.498;11.966;2022-07-01T07:07:59;4.35;;;1.63;;
17955;SDS011;27666;51.498;11.966;2022-07-01T07:10:46;4.05;;;1.85;;
17955;SDS011;27666;51.498;11.966;2022-07-01T07:13:34;1.83;;;1.67;;
17955;SDS011;27666;51.498;11.966;2022-07-01T07:16:21;1.80;;;1.70;;
17955;SDS011;27666;51.498;11.966;2022-07-01T07:19:08;1.60;;;1.50;;
17955;SDS011;27666;51.498;11.966;2022-07-01T07:21:55;3.42;;;1.98;;
17955;SDS011;27666;51.498;11.966;2022-07-01T07:24:42;1.63;;;1.52;;
17955;SDS011;27666;51.498;11.966;2022-07-01T07:27:28;2.38;;;1.80;;
17955;SDS011;27666;51.498;11.966;2022-07-01T07:30:20;2.03;;;1.63;;
17955;SDS011;27666;51.498;11.966;2022-07-01T07:33:06;1.73;;;1.63;;
17955;SDS011;27666;51.498;11.966;2022-07-01T07:35:53;1.67;;;1.58;;
17955;SDS011;27666;51.498;11.966;2022-07-01T07:38:39;3.78;;;2.05;;
17955;SDS011;27666;51.498;11.966;2022-07-01T07:41:26;2.13;;;1.95;;
17955;SDS011;27666;51.498;11.966;2022-07-01T07:44:12;2.40;;;1.90;;
17955;SDS011;27666;51.498;11.966;2022-07-01T07:47:01;3.15;;;2.10;;
17955;SDS011;27666;51.498;11.966;2022-07-01T07:49:48;3.88;;;2.80;;
17955;SDS011;27666;51.498;11.966;2022-07-01T07:52:34;9.35;;;4.35;;
17955;SDS011;27666;51.498;11.966;2022-07-01T07:55:20;9.43;;;4.68;;
17955;SDS011;27666;51.498;11.966;2022-07-01T07:58:07;8.05;;;6.15;;
17955;SDS011;27666;51.498;11.966;2022-07-01T08:00:54;8.25;;;6.30;;
17955;SDS011;27666;51.498;11.966;2022-07-01T08:03:42;8.95;;;6.53;;
17955;SDS011;27666;51.498;11.966;2022-07-01T08:06:30;11.10;;;6.65;;
17955;SDS011;27666;51.498;11.966;2022-07-01T08:09:17;13.52;;;10.02;;
17955;SDS011;27666;51.498;11.966;2022-07-01T08:12:06;11.55;;;8.27;;
17955;SDS011;27666;51.498;11.966;2022-07-01T08:14:53;12.00;;;8.48;;
17955;SDS011;27666;51.498;11.966;2022-07-01T08:17:40;10.07;;;8.82;;
17955;SDS011;27666;51.498;11.966;2022-07-01T08:20:28;10.60;;;8.48;;
17955;SDS011;27666;51.498;11.966;2022-07-01T08:23:15;11.00;;;8.73;;
17955;SDS011;27666;51.498;11.966;2022-07-01T08:26:02;9.23;;;7.78;;
17955;SDS011;27666;51.498;11.966;2022-07-01T08:28:49;11.75;;;8.55;;
17955;SDS011;27666;51.498;11.966;2022-07-01T08:31:36;10.02;;;7.38;;
17955;SDS011;27666;51.498;11.966;2022-07-01T08:34:23;11.27;;;7.65;;
17955;SDS011;27666;51.498;11.966;2022-07-01T08:37:11;10.45;;;7.57;;
17955;SDS011;27666;51.498;11.966;2022-07-01T08:39:58;8.50;;;6.82;;
17955;SDS011;27666;51.498;11.966;2022-07-01T08:42:45;8.68;;;7.30;;
17955;SDS011;27666;51.498;11.966;2022-07-01T08:45:32;13.13;;;7.05;;
17955;SDS011;27666;51.498;11.966;2022-07-01T08:48:19;9.48;;;6.85;;
17955;SDS011;27666;51.498;11.966;2022-07-01T08:51:06;8.57;;;6.72;;
17955;SDS011;27666;51.498;11.966;2022-07-01T08:53:55;8.30;;;7.00;;
17955;SDS011;27666;51.498;11.966;2022-07-01T08:56:41;8.77;;;6.88;;
17955;SDS011;27666;51.498;11.966;2022-07-01T08:59:30;50.53;;;32.38;;
17955;SDS011;27666;51.498;11.966;2022-07-01T09:02:17;25.95;;;16.90;;
17955;SDS011;27666;51.498;11.966;2022-07-01T09:05:04;7.65;;;6.85;;
17955;SDS011;27666;51.498;11.966;2022-07-01T09:07:55;9.90;;;7.03;;
17955;SDS011;27666;51.498;11.966;2022-07-01T09:10:44;8.48;;;7.22;;
17955;SDS011;27666;51.498;11.966;2022-07-01T09:13:31;13.52;;;7.07;;
17955;SDS011;27666;51.498;11.966;2022-07-01T09:16:18;8.18;;;6.60;;
17955;SDS011;27666;51.498;11.966;2022-07-01T09:19:05;20.73;;;15.07;;
17955;SDS011;27666;51.498;11.966;2022-07-01T09:21:53;9.10;;;7.28;;
17955;SDS011;27666;51.498;11.966;2022-07-01T09:24:42;9.10;;;6.30;;
17955;SDS011;27666;51.498;11.966;2022-07-01T09:27:30;8.93;;;7.13;;
17955;SDS011;27666;51.498;11.966;2022-07-01T09:30:17;10.32;;;6.82;;
17955;SDS011;27666;51.498;11.966;2022-07-01T09:33:05;13.50;;;6.30;;
17955;SDS011;27666;51.498;11.966;2022-07-01T09:35:52;9.90;;;6.97;;
17955;SDS011;27666;51.498;11.966;2022-07-01T09:38:44;11.20;;;7.00;;
17955;SDS011;27666;51.498;11.966;2022-07-01T09:41:34;36.67;;;23.60;;
17955;SDS011;27666;51.498;11.966;2022-07-01T09:44:23;10.95;;;7.18;;
17955;SDS011;27666;51.498;11.966;2022-07-01T09:47:11;10.30;;;7.35;;
17955;SDS011;27666;51.498;11.966;2022-07-01T09:49:58;10.10;;;6.35;;
17955;SDS011;27666;51.498;11.966;2022-07-01T09:52:45;8.55;;;6.53;;
17955;SDS011;27666;51.498;11.966;2022-07-01T09:55:31;7.82;;;5.90;;
17955;SDS011;27666;51.498;11.966;2022-07-01T09:58:20;6.55;;;5.15;;
17955;SDS011;27666;51.498;11.966;2022-07-01T10:01:08;9.55;;;5.57;;
17955;SDS011;27666;51.498;11.966;2022-07-01T10:03:56;5.95;;;5.30;;
17955;SDS011;27666;51.498;11.966;2022-07-01T10:06:48;8.75;;;5.18;;
17955;SDS011;27666;51.498;11.966;2022-07-01T10:09:52;8.65;;;5.25;;
17955;SDS011;27666;51.498;11.966;2022-07-01T10:12:42;5.93;;;4.80;;
17955;SDS011;27666;51.498;11.966;2022-07-01T10:15:29;6.88;;;4.70;;
17955;SDS011;27666;51.498;11.966;2022-07-01T10:18:22;6.07;;;4.75;;
17955;SDS011;27666;51.498;11.966;2022-07-01T10:21:09;5.25;;;4.60;;
17955;SDS011;27666;51.498;11.966;2022-07-01T10:24:11;5.55;;;4.55;;
17955;SDS011;27666;51.498;11.966;2022-07-01T10:26:59;5.28;;;3.63;;
17955;SDS011;27666;51.498;11.966;2022-07-01T10:29:46;5.97;;;3.60;;
17955;SDS011;27666;51.498;11.966;2022-07-01T10:32:33;6.70;;;3.78;;
17955;SDS011;27666;51.498;11.966;2022-07-01T10:35:41;46.85;;;25.23;;
17955;SDS011;27666;51.498;11.966;2022-07-01T10:38:33;4.05;;;3.65;;
17955;SDS011;27666;51.498;11.966;2022-07-01T10:41:22;4.03;;;3.60;;
17955;SDS011;27666;51.498;11.966;2022-07-01T10:44:10;5.00;;;3.80;;
17955;SDS011;27666;51.498;11.966;2022-07-01T10:47:02;4.28;;;3.88;;
17955;SDS011;27666;51.498;11.966;2022-07-01T10:49:54;4.72;;;3.75;;
17955;SDS011;27666;51.498;11.966;2022-07-01T10:55:46;3.92;;;3.50;;
17955;SDS011;27666;51.498;11.966;2022-07-01T10:58:38;3.67;;;3.38;;
17955;SDS011;27666;51.498;11.966;2022-07-01T11:01:25;3.78;;;3.42;;
17955;SDS011;27666;51.498;11.966;2022-07-01T11:04:12;4.50;;;3.50;;
17955;SDS011;27666;51.498;11.966;2022-07-01T11:06:59;3.33;;;3.03;;
17955;SDS011;27666;51.498;11.966;2022-07-01T11:09:46;5.95;;;3.28;;
17955;SDS011;27666;51.498;11.966;2022-07-01T11:12:34;2.70;;;2.50;;
17955;SDS011;27666;51.498;11.966;2022-07-01T11:15:21;2.88;;;2.58;;
17955;SDS011;27666;51.498;11.966;2022-07-01T11:18:08;2.50;;;2.30;;
17955;SDS011;27666;51.498;11.966;2022-07-01T11:21:05;3.67;;;2.10;;
17955;SDS011;27666;51.498;11.966;2022-07-01T11:23:53;2.00;;;1.90;;
17955;SDS011;27666;51.498;11.966;2022-07-01T11:26:40;2.38;;;2.17;;
17955;SDS011;27666;51.498;11.966;2022-07-01T11:29:28;2.30;;;2.10;;
17955;SDS011;27666;51.498;11.966;2022-07-01T11:32:22;2.42;;;1.90;;
17955;SDS011;27666;51.498;11.966;2022-07-01T11:35:13;2.72;;;2.20;;
17955;SDS011;27666;51.498;11.966;2022-07-01T11:38:18;2.15;;;2.05;;
17955;SDS011;27666;51.498;11.966;2022-07-01T11:41:24;2.20;;;2.00;;
17955;SDS011;27666;51.498;11.966;2022-07-01T11:44:11;5.93;;;4.45;;
17955;SDS011;27666;51.498;11.966;2022-07-01T11:46:59;19.92;;;11.82;;
17955;SDS011;27666;51.498;11.966;2022-07-01T11:49:47;5.90;;;2.95;;
17955;SDS011;27666;51.498;11.966;2022-07-01T11:52:34;3.40;;;2.38;;
17955;SDS011;27666;51.498;11.966;2022-07-01T11:55:20;2.83;;;2.20;;
17955;SDS011;27666;51.498;11.966;2022-07-01T11:58:23;2.55;;;2.35;;
17955;SDS011;27666;51.498;11.966;2022-07-01T12:01:10;2.42;;;2.00;;
17955;SDS011;27666;51.498;11.966;2022-07-01T12:03:58;2.47;;;2.28;;
17955;SDS011;27666;51.498;11.966;2022-07-01T12:06:47;2.78;;;2.47;;
17955;SDS011;27666;51.498;11.966;2022-07-01T12:09:34;3.95;;;2.60;;
17955;SDS011;27666;51.498;11.966;2022-07-01T12:12:22;2.17;;;2.08;;
17955;SDS011;27666;51.498;11.966;2022-07-01T12:15:13;3.88;;;2.97;;
17955;SDS011;27666;51.498;11.966;2022-07-01T12:18:06;4.03;;;3.10;;
17955;SDS011;27666;51.498;11.966;2022-07-01T12:20:55;2.80;;;2.60;;
17955;SDS011;27666;51.498;11.966;2022-07-01T12:23:42;4.85;;;2.33;;
17955;SDS011;27666;51.498;11.966;2022-07-01T12:26:28;2.70;;;2.30;;
17955;SDS011;27666;51.498;11.966;2022-07-01T12:29:16;2.90;;;2.58;;
17955;SDS011;27666;51.498;11.966;2022-07-01T12:32:04;46.22;;;25.27;;
17955;SDS011;27666;51.498;11.966;2022-07-01T12:34:51;16.17;;;10.85;;
17955;SDS011;27666;51.498;11.966;2022-07-01T12:37:46;3.40;;;3.10;;
17955;SDS011;27666;51.498;11.966;2022-07-01T12:40:33;3.55;;;3.10;;
17955;SDS011;27666;51.498;11.966;2022-07-01T12:43:23;3.83;;;3.42;;
17955;SDS011;27666;51.498;11.966;2022-07-01T12:46:10;4.60;;;3.55;;
17955;SDS011;27666;51.498;11.966;2022-07-01T12:49:17;4.00;;;3.63;;
17955;SDS011;27666;51.498;11.966;2022-07-01T12:52:04;4.88;;;4.07;;
17955;SDS011;27666;51.498;11.966;2022-07-01T12:55:16;3.88;;;3.50;;
17955;SDS011;27666;51.498;11.966;2022-07-01T12:58:04;5.80;;;3.63;;
17955;SDS011;27666;51.498;11.966;2022-07-01T13:00:52;5.93;;;3.90;;
17955;SDS011;27666;51.498;11.966;2022-07-01T13:03:39;3.97;;;3.63;;
17955;SDS011;27666;51.498;11.966;2022-07-01T13:06:27;4.40;;;4.00;;
17955;SDS011;27666;51.498;11.966;2022-07-01T13:09:14;4.72;;;4.25;;
17955;SDS011;27666;51.498;11.966;2022-07-01T13:12:02;5.03;;;4.40;;
17955;SDS011;27666;51.498;11.966;2022-07-01T13:14:49;5.28;;;4.30;;
17955;SDS011;27666;51.498;11.966;2022-07-01T13:17:36;6.65;;;4.88;;
17955;SDS011;27666;51.498;11.966;2022-07-01T13:20:23;5.75;;;4.93;;
17955;SDS011;27666;51.498;11.966;2022-07-01T13:23:10;4.95;;;4.40;;
17955;SDS011;27666;51.498;11.966;2022-07-01T13:25:57;5.97;;;5.38;;
17955;SDS011;27666;51.498;11.966;2022-07-01T13:28:45;6.72;;;4.95;;
17955;SDS011;27666;51.498;11.966;2022-07-01T13:31:32;19.63;;;12.45;;
17955;SDS011;27666;51.498;11.966;2022-07-01T13:34:19;18.80;;;11.27;;
17955;SDS011;27666;51.498;11.966;2022-07-01T13:37:06;9.40;;;5.55;;
17955;SDS011;27666;51.498;11.966;2022-07-01T13:39:53;5.90;;;5.22;;
17955;SDS011;27666;51.498;11.966;2022-07-01T13:42:40;7.55;;;5.95;;
17955;SDS011;27666;51.498;11.966;2022-07-01T13:45:28;6.95;;;5.15;;
17955;SDS011;27666;51.498;11.966;2022-07-01T13:48:15;6.45;;;4.95;;
17955;SDS011;27666;51.498;11.966;2022-07-01T13:51:02;7.03;;;5.50;;
17955;SDS011;27666;51.498;11.966;2022-07-01T13:53:49;7.60;;;5.90;;
17955;SDS011;27666;51.498;11.966;2022-07-01T13:56:36;7.18;;;5.97;;
17955;SDS011;27666;51.498;11.966;2022-07-01T13:59:23;6.13;;;5.40;;
17955;SDS011;27666;51.498;11.966;2022-07-01T14:02:11;6.72;;;5.53;;
17955;SDS011;27666;51.498;11.966;2022-07-01T14:04:58;6.22;;;5.63;;
17955;SDS011;27666;51.498;11.966;2022-07-01T14:07:45;10.48;;;7.00;;
17955;SDS011;27666;51.498;11.966;2022-07-01T14:10:32;6.93;;;5.60;;
17955;SDS011;27666;51.498;11.966;2022-07-01T14:13:20;8.02;;;6.03;;
17955;SDS011;27666;51.498;11.966;2022-07-01T14:16:08;6.25;;;4.93;;
17955;SDS011;27666;51.498;11.966;2022-07-01T14:18:57;6.10;;;5.35;;
17955;SDS011;27666;51.498;11.966;2022-07-01T14:21:44;23.98;;;16.55;;
17955;SDS011;27666;51.498;11.966;2022-07-01T14:24:31;19.10;;;12.23;;
17955;SDS011;27666;51.498;11.966;2022-07-01T14:27:18;10.43;;;6.20;;
17955;SDS011;27666;51.498;11.966;2022-07-01T14:30:05;8.38;;;5.75;;
17955;SDS011;27666;51.498;11.966;2022-07-01T14:32:53;9.90;;;6.07;;
17955;SDS011;27666;51.498;11.966;2022-07-01T14:35:41;8.68;;;6.30;;
17955;SDS011;27666;51.498;11.966;2022-07-01T14:38:28;10.30;;;6.25;;
17955;SDS011;27666;51.498;11.966;2022-07-01T14:41:14;8.60;;;5.22;;
17955;SDS011;27666;51.498;11.966;2022-07-01T14:44:01;9.52;;;6.05;;
17955;SDS011;27666;51.498;11.966;2022-07-01T14:46:48;8.57;;;6.35;;
17955;SDS011;27666;51.498;11.966;2022-07-01T14:49:35;9.32;;;6.15;;
17955;SDS011;27666;51.498;11.966;2022-07-01T14:52:24;10.05;;;6.68;;
17955;SDS011;27666;51.498;11.966;2022-07-01T14:55:10;9.73;;;6.57;;
17955;SDS011;27666;51.498;11.966;2022-07-01T14:57:57;8.05;;;6.32;;
17955;SDS011;27666;51.498;11.966;2022-07-01T15:00:45;8.35;;;5.88;;
17955;SDS011;27666;51.498;11.966;2022-07-01T15:03:32;10.10;;;7.70;;
17955;SDS011;27666;51.498;11.966;2022-07-01T15:06:19;8.50;;;6.53;;
17955;SDS011;27666;51.498;11.966;2022-07-01T15:09:07;8.73;;;6.80;;
17955;SDS011;27666;51.498;11.966;2022-07-01T15:11:53;12.00;;;6.10;;
17955;SDS011;27666;51.498;11.966;2022-07-01T15:14:40;11.88;;;7.25;;
17955;SDS011;27666;51.498;11.966;2022-07-01T15:17:27;8.20;;;7.03;;
17955;SDS011;27666;51.498;11.966;2022-07-01T15:20:14;8.65;;;6.80;;
17955;SDS011;27666;51.498;11.966;2022-07-01T15:23:01;11.77;;;7.60;;
17955;SDS011;27666;51.498;11.966;2022-07-01T15:25:50;9.40;;;7.22;;
17955;SDS011;27666;51.498;11.966;2022-07-01T15:28:37;13.25;;;7.07;;
17955;SDS011;27666;51.498;11.966;2022-07-01T15:31:23;10.68;;;6.50;;
17955;SDS011;27666;51.498;11.966;2022-07-01T15:34:30;10.57;;;7.45;;
17955;SDS011;27666;51.498;11.966;2022-07-01T15:37:17;10.00;;;6.47;;
17955;SDS011;27666;51.498;11.966;2022-07-01T15:40:04;12.45;;;8.15;;
17955;SDS011;27666;51.498;11.966;2022-07-01T15:42:52;10.50;;;7.13;;
17955;SDS011;27666;51.498;11.966;2022-07-01T15:45:41;8.27;;;6.93;;
17955;SDS011;27666;51.498;11.966;2022-07-01T15:48:27;10.27;;;7.47;;
17955;SDS011;27666;51.498;11.966;2022-07-01T15:51:14;10.23;;;6.75;;
17955;SDS011;27666;51.498;11.966;2022-07-01T15:54:01;10.55;;;7.43;;
17955;SDS011;27666;51.498;11.966;2022-07-01T15:56:48;11.30;;;7.50;;
17955;SDS011;27666;51.498;11.966;2022-07-01T15:59:36;8.70;;;7.55;;
17955;SDS011;27666;51.498;11.966;2022-07-01T16:02:23;9.82;;;7.93;;
17955;SDS011;27666;51.498;11.966;2022-07-01T16:05:10;9.88;;;7.57;;
17955;SDS011;27666;51.498;11.966;2022-07-01T16:07:58;11.82;;;8.23;;
17955;SDS011;27666;51.498;11.966;2022-07-01T16:10:46;12.02;;;9.35;;
17955;SDS011;27666;51.498;11.966;2022-07-01T16:13:34;11.73;;;7.95;;
17955;SDS011;27666;51.498;11.966;2022-07-01T16:16:22;14.45;;;7.90;;
17955;SDS011;27666;51.498;11.966;2022-07-01T16:19:10;11.93;;;8.40;;
17955;SDS011;27666;51.498;11.966;2022-07-01T16:21:58;13.10;;;8.68;;
17955;SDS011;27666;51.498;11.966;2022-07-01T16:24:47;11.60;;;8.93;;
17955;SDS011;27666;51.498;11.966;2022-07-01T16:27:34;10.93;;;8.57;;